createdAt,value
2022-10-20T00:01:42.723Z,12.65
2022-10-20T00:04:17.698Z,12.82
2022-10-20T00:06:49.213Z,13.10
2022-10-20T00:09:20.706Z,11.35
2022-10-20T00:11:50.864Z,11.57
2022-10-20T00:14:19.210Z,12.95
2022-10-20T00:16:49.585Z,11.40
2022-10-20T00:19:19.713Z,11.70
2022-10-20T00:21:51.622Z,12.90
2022-10-20T00:24:22.731Z,11.13
2022-10-20T00:26:50.731Z,12.70
2022-10-20T00:31:50.916Z,13.20
2022-10-20T00:34:19.747Z,11.90
2022-10-20T00:36:51.335Z,13.70
2022-10-20T00:39:23.894Z,13.32
2022-10-20T00:41:52.089Z,12.38
2022-10-20T00:44:51.058Z,12.20
2022-10-20T00:47:36.053Z,12.68
2022-10-20T00:50:10.001Z,12.77
2022-10-20T00:52:42.558Z,12.32
2022-10-20T00:55:12.651Z,12.00
2022-10-20T00:57:43.824Z,13.30
2022-10-20T01:00:12.322Z,12.18
2022-10-20T01:02:40.221Z,13.35
2022-10-20T01:05:08.714Z,13.68
2022-10-20T01:07:37.769Z,13.25
2022-10-20T01:10:07.321Z,11.77
2022-10-20T01:13:05.430Z,11.98
2022-10-20T01:15:39.533Z,12.73
2022-10-20T01:18:19.351Z,12.85
2022-10-20T01:21:06.197Z,12.57
2022-10-20T01:23:57.146Z,11.98
2022-10-20T01:27:02.805Z,13.07
2022-10-20T01:29:46.338Z,13.75
2022-10-20T01:32:25.357Z,15.32
2022-10-20T01:35:13.814Z,12.93
2022-10-20T01:38:02.414Z,13.95
2022-10-20T01:40:36.117Z,13.80
2022-10-20T01:43:08.639Z,12.82
2022-10-20T01:45:40.343Z,13.45
2022-10-20T01:48:11.911Z,12.55
2022-10-20T01:50:41.666Z,13.20
2022-10-20T01:53:10.600Z,11.85
2022-10-20T01:55:40.115Z,12.57
2022-10-20T01:58:20.470Z,11.93
2022-10-20T02:00:53.373Z,12.45
2022-10-20T02:03:54.929Z,12.93
2022-10-20T02:06:50.320Z,12.98
2022-10-20T02:09:29.669Z,12.82
2022-10-20T02:12:08.154Z,13.52
2022-10-20T02:14:37.960Z,11.82
2022-10-20T02:17:09.617Z,11.65
2022-10-20T02:19:41.410Z,12.63
2022-10-20T02:22:10.946Z,12.82
2022-10-20T02:24:44.722Z,13.45
2022-10-20T02:27:22.892Z,12.98
2022-10-20T02:30:05.309Z,13.00
2022-10-20T02:32:39.599Z,11.90
2022-10-20T02:35:13.007Z,13.52
2022-10-20T02:37:41.156Z,12.43
2022-10-20T02:40:09.110Z,13.43
2022-10-20T02:42:38.971Z,12.70
2022-10-20T02:45:07.420Z,13.65
2022-10-20T02:47:43.070Z,13.77
2022-10-20T02:50:10.776Z,12.75
2022-10-20T02:52:45.827Z,12.90
2022-10-20T02:55:15.706Z,12.88
2022-10-20T02:57:42.975Z,13.48
2022-10-20T03:00:16.166Z,12.43
2022-10-20T03:02:43.355Z,12.43
2022-10-20T03:05:10.517Z,13.70
2022-10-20T03:07:38.043Z,13.15
2022-10-20T03:10:06.274Z,13.65
2022-10-20T03:12:33.513Z,13.05
2022-10-20T03:15:00.721Z,13.50
2022-10-20T03:17:28.077Z,13.32
2022-10-20T03:19:55.293Z,14.88
2022-10-20T03:22:22.620Z,13.38
2022-10-20T03:24:49.792Z,13.07
2022-10-20T03:27:17.156Z,13.35
2022-10-20T03:29:46.627Z,12.80
2022-10-20T03:32:13.948Z,13.63
2022-10-20T03:34:43.762Z,12.70
2022-10-20T03:37:11.090Z,14.65
2022-10-20T03:39:41.152Z,14.57
2022-10-20T03:42:10.845Z,13.18
2022-10-20T03:44:40.131Z,13.77
2022-10-20T03:47:10.130Z,12.13
2022-10-20T03:49:39.652Z,14.30
2022-10-20T03:52:06.792Z,14.00
2022-10-20T03:54:36.243Z,12.85
2022-10-20T03:57:06.879Z,12.70
2022-10-20T04:02:41.949Z,12.18
2022-10-20T04:05:13.187Z,11.98
2022-10-20T04:07:45.154Z,13.30
2022-10-20T04:10:15.478Z,13.68
2022-10-20T04:15:15.046Z,12.98
2022-10-20T04:17:46.863Z,12.57
2022-10-20T04:20:15.244Z,14.18
2022-10-20T04:22:44.435Z,13.98
2022-10-20T04:25:15.347Z,13.68
2022-10-20T04:27:44.572Z,14.00
2022-10-20T04:30:13.363Z,12.55
2022-10-20T04:32:44.248Z,13.13
2022-10-20T04:35:15.711Z,12.27
2022-10-20T04:37:43.914Z,13.43
2022-10-20T04:40:14.885Z,12.73
2022-10-20T04:42:46.263Z,12.82
2022-10-20T04:45:16.330Z,13.75
2022-10-20T04:47:48.585Z,13.00
2022-10-20T04:50:18.075Z,13.10
2022-10-20T04:53:02.137Z,13.13
2022-10-20T04:58:04.681Z,12.40
2022-10-20T05:00:32.981Z,14.70
2022-10-20T05:03:05.601Z,12.95
2022-10-20T05:05:34.381Z,13.13
2022-10-20T05:08:02.894Z,13.75
2022-10-20T05:10:33.190Z,13.23
2022-10-20T05:15:33.934Z,12.50
2022-10-20T05:18:02.372Z,13.10
2022-10-20T05:20:36.725Z,13.60
2022-10-20T05:25:50.281Z,13.63
2022-10-20T05:28:21.736Z,15.02
2022-10-20T05:30:53.853Z,13.88
2022-10-20T05:33:23.359Z,15.57
2022-10-20T05:35:51.625Z,14.30
2022-10-20T05:38:19.951Z,15.07
2022-10-20T05:40:47.567Z,13.32
2022-10-20T05:43:17.202Z,13.38
2022-10-20T05:45:45.099Z,14.55
2022-10-20T05:48:18.247Z,14.13
2022-10-20T05:53:18.937Z,14.95
2022-10-20T05:55:46.694Z,14.43
2022-10-20T05:58:16.807Z,15.15
2022-10-20T06:00:53.858Z,14.55
2022-10-20T06:03:24.856Z,13.88
2022-10-20T06:06:00.105Z,14.73
2022-10-20T06:08:35.649Z,15.32
2022-10-20T06:11:12.400Z,14.93
2022-10-20T06:13:40.574Z,13.80
2022-10-20T06:16:20.513Z,15.32
2022-10-20T06:18:48.845Z,16.55
2022-10-20T06:21:20.364Z,16.95
2022-10-20T06:23:49.751Z,15.18
2022-10-20T06:26:20.872Z,15.73
2022-10-20T06:28:52.128Z,14.88
2022-10-20T06:31:28.123Z,15.75
2022-10-20T06:33:59.343Z,20.02
2022-10-20T06:36:30.517Z,15.73
2022-10-20T06:39:00.557Z,13.95
2022-10-20T06:41:29.707Z,15.45
2022-10-20T06:44:01.050Z,16.13
2022-10-20T06:46:33.310Z,15.48
2022-10-20T06:49:04.140Z,14.45
2022-10-20T06:51:32.789Z,14.55
2022-10-20T06:54:01.585Z,14.60
2022-10-20T06:56:33.788Z,16.25
2022-10-20T06:59:03.078Z,15.48
2022-10-20T07:01:34.222Z,14.25
2022-10-20T07:04:05.795Z,13.07
2022-10-20T07:06:45.262Z,15.45
2022-10-20T07:09:18.471Z,13.10
2022-10-20T07:11:50.898Z,14.13
2022-10-20T07:14:21.331Z,13.70
2022-10-20T07:16:51.150Z,14.32
2022-10-20T07:19:21.804Z,14.40
2022-10-20T07:21:49.636Z,12.80
2022-10-20T07:24:17.603Z,14.25
2022-10-20T07:26:45.433Z,12.07
2022-10-20T07:29:16.356Z,15.52
2022-10-20T07:31:47.140Z,13.90
2022-10-20T07:34:25.170Z,12.80
2022-10-20T07:36:54.089Z,14.32
2022-10-20T07:39:22.023Z,13.68
2022-10-20T07:41:50.155Z,13.35
2022-10-20T07:44:24.536Z,12.70
2022-10-20T07:46:52.930Z,14.38
2022-10-20T07:52:09.633Z,13.40
2022-10-20T07:54:37.838Z,14.30
2022-10-20T07:57:08.442Z,14.65
2022-10-20T07:59:39.892Z,14.55
2022-10-20T08:02:08.728Z,12.90
2022-10-20T08:04:39.372Z,15.27
2022-10-20T08:07:08.081Z,12.50
2022-10-20T08:09:42.488Z,13.63
2022-10-20T08:12:16.282Z,14.35
2022-10-20T08:14:45.529Z,15.00
2022-10-20T08:17:13.457Z,14.27
2022-10-20T08:22:28.798Z,12.35
2022-10-20T08:24:59.983Z,12.23
2022-10-20T08:27:27.961Z,12.85
2022-10-20T08:30:06.088Z,13.45
2022-10-20T08:32:42.981Z,13.07
2022-10-20T08:35:13.577Z,11.65
2022-10-20T08:37:48.577Z,14.77
2022-10-20T08:40:21.868Z,14.57
2022-10-20T08:42:51.956Z,12.45
2022-10-20T08:45:25.263Z,13.15
2022-10-20T08:47:59.835Z,11.60
2022-10-20T08:50:31.227Z,13.13
2022-10-20T08:53:01.453Z,12.55
2022-10-20T08:55:34.078Z,12.80
2022-10-20T08:58:16.259Z,13.27
2022-10-20T09:00:47.682Z,13.82
2022-10-20T09:03:26.257Z,13.80
2022-10-20T09:06:16.962Z,14.82
2022-10-20T09:08:45.659Z,13.57
2022-10-20T09:11:24.726Z,14.88
2022-10-20T09:13:54.903Z,14.27
2022-10-20T09:16:41.997Z,13.93
2022-10-20T09:19:21.289Z,15.50
2022-10-20T09:21:59.570Z,16.23
2022-10-20T09:24:30.585Z,16.15
2022-10-20T09:27:23.919Z,19.13
2022-10-20T09:29:52.261Z,17.48
2022-10-20T09:35:21.410Z,16.25
2022-10-20T09:38:36.282Z,14.13
2022-10-20T09:41:26.351Z,15.68
2022-10-20T09:43:58.058Z,14.45
2022-10-20T09:46:40.211Z,13.93
2022-10-20T09:49:09.181Z,17.90
2022-10-20T09:51:37.590Z,12.85
2022-10-20T09:54:11.496Z,11.90
2022-10-20T09:56:44.731Z,12.30
2022-10-20T09:59:37.089Z,13.20
2022-10-20T10:02:20.666Z,14.60
2022-10-20T10:04:53.752Z,12.07
2022-10-20T10:07:28.020Z,11.35
2022-10-20T10:10:08.335Z,12.43
2022-10-20T10:12:37.798Z,12.52
2022-10-20T10:15:24.489Z,12.07
2022-10-20T10:17:53.432Z,13.32
2022-10-20T10:20:28.344Z,14.13
2022-10-20T10:23:15.773Z,14.32
2022-10-20T10:25:43.594Z,12.55
2022-10-20T10:28:24.113Z,13.80
2022-10-20T10:31:12.139Z,11.23
2022-10-20T10:33:40.151Z,11.00
2022-10-20T10:36:23.773Z,11.80
2022-10-20T10:38:55.560Z,11.77
2022-10-20T10:41:37.802Z,11.45
2022-10-20T10:44:40.093Z,10.23
2022-10-20T10:47:08.221Z,15.43
2022-10-20T10:49:43.359Z,12.77
2022-10-20T10:52:35.085Z,11.02
2022-10-20T10:55:43.666Z,11.23
2022-10-20T10:58:37.228Z,11.10
2022-10-20T11:01:28.262Z,10.95
2022-10-20T11:04:31.224Z,11.23
2022-10-20T11:07:07.481Z,11.82
2022-10-20T11:10:22.658Z,11.57
2022-10-20T11:13:24.433Z,10.93
2022-10-20T11:16:29.816Z,12.07
2022-10-20T11:19:20.628Z,11.23
2022-10-20T11:22:15.851Z,11.57
2022-10-20T11:25:14.063Z,10.65
2022-10-20T11:27:46.265Z,10.10
2022-10-20T11:30:19.982Z,10.13
2022-10-20T11:32:54.032Z,10.07
2022-10-20T11:35:46.299Z,9.70
2022-10-20T11:38:22.216Z,11.93
2022-10-20T11:40:59.670Z,10.27
2022-10-20T11:44:02.506Z,12.95
2022-10-20T11:46:44.561Z,11.18
2022-10-20T11:49:13.028Z,10.13
2022-10-20T11:52:38.662Z,12.00
2022-10-20T11:55:24.802Z,11.52
2022-10-20T11:58:16.989Z,10.07
2022-10-20T12:00:59.655Z,11.80
2022-10-20T12:03:54.699Z,10.50
2022-10-20T12:06:50.213Z,9.38
2022-10-20T12:09:46.135Z,11.77
2022-10-20T12:13:03.572Z,9.98
2022-10-20T12:15:34.505Z,9.35
2022-10-20T12:18:09.793Z,12.02
2022-10-20T12:20:37.671Z,11.70
2022-10-20T12:23:07.736Z,11.05
2022-10-20T12:25:39.389Z,9.70
2022-10-20T12:28:25.504Z,10.50
2022-10-20T12:31:00.781Z,10.00
2022-10-20T12:33:39.759Z,10.48
2022-10-20T12:36:37.681Z,10.43
2022-10-20T12:39:18.441Z,8.93
2022-10-20T12:42:03.409Z,10.20
2022-10-20T12:44:47.035Z,10.38
2022-10-20T12:47:36.963Z,10.30
2022-10-20T12:50:24.471Z,10.20
2022-10-20T12:52:52.615Z,10.02
2022-10-20T12:55:34.337Z,9.27
2022-10-20T12:58:35.156Z,9.05
2022-10-20T13:01:06.849Z,10.93
2022-10-20T13:03:41.748Z,9.75
2022-10-20T13:06:25.122Z,10.45
2022-10-20T13:09:10.806Z,8.32
2022-10-20T13:11:47.536Z,11.18
2022-10-20T13:14:26.016Z,9.75
2022-10-20T13:17:17.110Z,9.73
2022-10-20T13:20:01.603Z,7.93
2022-10-20T13:22:54.967Z,8.77
2022-10-20T13:25:49.218Z,8.63
2022-10-20T13:28:24.457Z,9.50
2022-10-20T13:31:03.244Z,10.00
2022-10-20T13:34:03.477Z,9.77
2022-10-20T13:36:50.662Z,10.20
2022-10-20T13:39:51.103Z,12.45
2022-10-20T13:42:38.771Z,12.73
2022-10-20T13:45:49.489Z,9.40
2022-10-20T13:48:26.065Z,10.02
2022-10-20T13:51:08.902Z,16.17
2022-10-20T13:53:44.566Z,10.75
2022-10-20T13:56:17.976Z,11.48
2022-10-20T13:59:05.484Z,11.10
2022-10-20T14:01:38.814Z,9.57
2022-10-20T14:04:28.102Z,10.23
2022-10-20T14:07:01.555Z,11.40
2022-10-20T14:12:26.903Z,10.55
2022-10-20T14:15:01.430Z,11.70
2022-10-20T14:17:38.492Z,10.70
2022-10-20T14:20:18.452Z,11.57
2022-10-20T14:22:49.899Z,12.55
2022-10-20T14:25:21.102Z,10.65
2022-10-20T14:27:53.983Z,10.35
2022-10-20T14:30:24.976Z,10.88
2022-10-20T14:32:57.559Z,11.30
2022-10-20T14:35:40.458Z,11.52
2022-10-20T14:38:19.142Z,14.57
2022-10-20T14:41:00.567Z,12.43
2022-10-20T14:43:49.123Z,14.27
2022-10-20T14:46:35.993Z,11.52
2022-10-20T14:49:14.141Z,13.00
2022-10-20T14:51:56.248Z,11.13
2022-10-20T14:57:16.918Z,10.23
2022-10-20T14:59:56.858Z,10.02
2022-10-20T15:02:33.737Z,10.98
2022-10-20T15:05:33.822Z,10.50
2022-10-20T15:08:29.974Z,10.80
2022-10-20T15:11:04.848Z,11.50
2022-10-20T15:13:36.686Z,10.20
2022-10-20T15:16:11.461Z,11.38
2022-10-20T15:18:40.289Z,10.95
2022-10-20T15:21:09.422Z,11.18
2022-10-20T15:23:38.158Z,11.95
2022-10-20T15:26:11.472Z,10.95
2022-10-20T15:28:41.758Z,12.25
2022-10-20T15:31:27.419Z,10.98
2022-10-20T15:33:57.913Z,10.95
2022-10-20T15:36:41.801Z,9.20
2022-10-20T15:39:13.055Z,10.10
2022-10-20T15:41:42.757Z,9.57
2022-10-20T15:44:16.303Z,9.60
2022-10-20T15:46:48.194Z,9.43
2022-10-20T15:49:19.474Z,10.63
2022-10-20T15:51:51.371Z,11.45
2022-10-20T15:54:21.624Z,10.27
2022-10-20T15:56:50.728Z,11.07
2022-10-20T15:59:19.531Z,12.98
2022-10-20T16:01:47.488Z,10.57
2022-10-20T16:04:24.572Z,10.60
2022-10-20T16:07:02.810Z,11.18
2022-10-20T16:09:31.635Z,11.77
2022-10-20T16:11:59.515Z,13.38
2022-10-20T16:14:30.993Z,10.55
2022-10-20T16:17:01.477Z,11.93
2022-10-20T16:19:31.592Z,10.68
2022-10-20T16:22:02.300Z,9.95
2022-10-20T16:24:31.274Z,11.80
2022-10-20T16:27:04.461Z,11.18
2022-10-20T16:29:33.143Z,10.43
2022-10-20T16:32:01.720Z,11.30
2022-10-20T16:34:32.946Z,11.30
2022-10-20T16:37:01.482Z,11.88
2022-10-20T16:39:33.979Z,11.07
2022-10-20T16:42:02.211Z,11.65
2022-10-20T16:44:31.362Z,11.68
2022-10-20T16:47:03.110Z,12.40
2022-10-20T16:49:31.249Z,11.63
2022-10-20T16:52:03.503Z,12.10
2022-10-20T16:54:34.864Z,10.70
2022-10-20T16:57:03.961Z,11.38
2022-10-20T16:59:34.453Z,11.68
2022-10-20T17:02:08.173Z,12.07
2022-10-20T17:04:44.235Z,11.88
2022-10-20T17:07:13.015Z,11.70
2022-10-20T17:09:41.817Z,12.05
2022-10-20T17:12:11.027Z,10.48
2022-10-20T17:14:41.744Z,10.75
2022-10-20T17:17:09.965Z,11.45
2022-10-20T17:19:41.475Z,11.60
2022-10-20T17:24:44.117Z,10.52
2022-10-20T17:27:12.295Z,11.73
2022-10-20T17:29:41.684Z,12.15
2022-10-20T17:32:12.246Z,12.30
2022-10-20T17:34:51.622Z,12.32
2022-10-20T17:37:22.080Z,10.90
2022-10-20T17:39:50.194Z,10.77
2022-10-20T17:42:18.524Z,10.75
2022-10-20T17:44:48.968Z,10.80
2022-10-20T17:47:20.614Z,10.88
2022-10-20T17:49:49.406Z,12.07
2022-10-20T17:52:18.090Z,10.63
2022-10-20T17:54:54.207Z,11.75
2022-10-20T17:57:26.009Z,11.93
2022-10-20T17:59:56.395Z,11.13
2022-10-20T18:02:26.003Z,10.73
2022-10-20T18:04:54.108Z,9.55
2022-10-20T18:07:28.894Z,9.82
2022-10-20T18:10:06.275Z,10.50
2022-10-20T18:12:38.112Z,10.30
2022-10-20T18:15:14.538Z,10.23
2022-10-20T18:17:45.995Z,10.05
2022-10-20T18:20:15.880Z,11.40
2022-10-20T18:22:44.857Z,9.90
2022-10-20T18:25:16.689Z,10.82
2022-10-20T18:27:45.111Z,11.30
2022-10-20T18:30:19.038Z,12.23
2022-10-20T18:32:47.576Z,11.20
2022-10-20T18:35:17.614Z,10.45
2022-10-20T18:37:46.884Z,10.77
2022-10-20T18:40:17.109Z,10.38
2022-10-20T18:42:45.874Z,12.32
2022-10-20T18:45:18.718Z,11.73
2022-10-20T18:48:11.351Z,11.13
2022-10-20T18:50:46.492Z,13.33
2022-10-20T18:53:16.579Z,11.45
2022-10-20T18:55:48.263Z,12.27
2022-10-20T18:58:19.218Z,10.55
2022-10-20T19:00:56.803Z,9.95
2022-10-20T19:03:25.106Z,11.13
2022-10-20T19:08:59.471Z,11.52
2022-10-20T19:11:34.701Z,10.80
2022-10-20T19:14:03.581Z,10.30
2022-10-20T19:16:45.637Z,10.13
2022-10-20T19:19:19.548Z,11.02
2022-10-20T19:21:49.013Z,10.33
2022-10-20T19:24:23.215Z,11.60
2022-10-20T19:29:50.692Z,11.65
2022-10-20T19:32:22.553Z,10.73
2022-10-20T19:34:50.972Z,9.88
2022-10-20T19:37:22.386Z,9.05
2022-10-20T19:39:54.287Z,9.57
2022-10-20T19:42:22.758Z,7.40
2022-10-20T19:44:56.389Z,8.65
2022-10-20T19:47:30.085Z,8.35
2022-10-20T19:50:01.350Z,8.52
2022-10-20T19:52:29.599Z,8.85
2022-10-20T19:54:59.209Z,9.45
2022-10-20T19:57:30.835Z,9.95
2022-10-20T19:59:59.403Z,10.35
2022-10-20T20:02:31.306Z,11.38
2022-10-20T20:04:59.564Z,9.32
2022-10-20T20:07:27.442Z,10.40
2022-10-20T20:09:55.394Z,8.30
2022-10-20T20:12:24.278Z,10.02
2022-10-20T20:14:53.267Z,8.98
2022-10-20T20:17:24.997Z,9.45
2022-10-20T20:19:54.897Z,10.68
2022-10-20T20:22:22.528Z,10.15
2022-10-20T20:24:50.498Z,8.52
2022-10-20T20:27:18.519Z,19.13
2022-10-20T20:50:12.341Z,7.57
2022-10-20T20:52:47.257Z,8.43
2022-10-20T20:55:18.316Z,7.82
2022-10-20T20:57:46.652Z,7.70
2022-10-20T21:00:15.441Z,7.63
2022-10-20T21:02:48.077Z,7.63
2022-10-20T21:05:16.780Z,7.43
2022-10-20T21:07:44.897Z,8.68
2022-10-20T21:10:19.319Z,7.38
2022-10-20T21:12:50.578Z,9.07
2022-10-20T21:15:22.348Z,8.73
2022-10-20T21:17:50.720Z,9.00
2022-10-20T21:27:13.858Z,8.18
2022-10-20T21:30:03.172Z,8.75
2022-10-20T21:32:37.283Z,8.55
2022-10-20T21:35:18.462Z,9.65
2022-10-20T22:03:17.581Z,7.10
2022-10-20T22:05:53.901Z,9.40
2022-10-20T22:08:36.918Z,8.95
2022-10-20T22:11:36.727Z,7.68
2022-10-20T22:14:20.392Z,8.60
2022-10-20T22:17:00.146Z,8.95
2022-10-20T22:19:37.790Z,9.05
2022-10-20T22:22:16.319Z,8.15
2022-10-20T22:24:58.941Z,10.32
2022-10-20T22:27:42.370Z,9.90
2022-10-20T22:30:31.625Z,9.18
2022-10-20T22:33:23.310Z,9.02
2022-10-20T22:36:01.734Z,8.75
2022-10-20T22:38:45.528Z,8.38
2022-10-20T22:41:35.007Z,9.10
2022-10-20T22:44:17.343Z,7.50
2022-10-20T22:46:56.472Z,9.32
2022-10-20T22:49:37.185Z,8.60
2022-10-20T22:52:23.977Z,7.95
2022-10-20T22:54:59.709Z,8.60
2022-10-20T22:57:49.536Z,8.40
2022-10-20T23:00:24.140Z,7.85
2022-10-20T23:02:58.257Z,8.77
2022-10-20T23:05:37.904Z,7.65
2022-10-20T23:08:17.250Z,7.65
2022-10-20T23:11:05.688Z,7.18
2022-10-20T23:13:47.724Z,7.05
2022-10-20T23:16:37.832Z,6.28
2022-10-20T23:19:16.358Z,7.47
2022-10-20T23:21:59.650Z,7.43
2022-10-20T23:24:41.105Z,6.47
2022-10-20T23:27:26.381Z,6.50
2022-10-20T23:30:06.792Z,6.65
2022-10-20T23:32:50.889Z,6.28
2022-10-20T23:35:49.125Z,6.85
2022-10-20T23:38:36.307Z,6.07
2022-10-20T23:41:18.557Z,6.82
2022-10-20T23:44:01.625Z,6.32
2022-10-20T23:46:47.508Z,5.63
2022-10-20T23:52:04.555Z,5.20
2022-10-20T23:54:45.789Z,4.20
2022-10-20T23:57:25.831Z,6.35
